sensor_id;sensor_type;location;lat;lon;timestamp;P1;durP1;ratioP1;P2;durP2;ratioP2
3791;SDS011;1911;53.768;11.474;2022-10-16T00:00:02;6.20;;;4.60;;
3791;SDS011;1911;53.768;11.474;2022-10-16T00:02:28;9.13;;;5.67;;
3791;SDS011;1911;53.768;11.474;2022-10-16T00:04:54;6.93;;;5.20;;
3791;SDS011;1911;53.768;11.474;2022-10-16T00:07:19;7.40;;;5.67;;
3791;SDS011;1911;53.768;11.474;2022-10-16T00:09:45;7.47;;;5.80;;
3791;SDS011;1911;53.768;11.474;2022-10-16T00:12:11;8.20;;;5.13;;
3791;SDS011;1911;53.768;11.474;2022-10-16T00:14:36;6.00;;;5.00;;
3791;SDS011;1911;53.768;11.474;2022-10-16T00:17:02;6.70;;;5.30;;
3791;SDS011;1911;53.768;11.474;2022-10-16T00:19:28;6.40;;;4.80;;
3791;SDS011;1911;53.768;11.474;2022-10-16T00:21:53;5.23;;;4.73;;
3791;SDS011;1911;53.768;11.474;2022-10-16T00:24:19;7.30;;;5.60;;
3791;SDS011;1911;53.768;11.474;2022-10-16T00:26:45;8.37;;;4.50;;
3791;SDS011;1911;53.768;11.474;2022-10-16T00:29:14;9.00;;;4.10;;
3791;SDS011;1911;53.768;11.474;2022-10-16T00:31:39;4.63;;;4.13;;
3791;SDS011;1911;53.768;11.474;2022-10-16T00:34:05;5.60;;;4.30;;
3791;SDS011;1911;53.768;11.474;2022-10-16T00:36:30;4.30;;;3.70;;
3791;SDS011;1911;53.768;11.474;2022-10-16T00:38:57;5.83;;;3.90;;
3791;SDS011;1911;53.768;11.474;2022-10-16T00:41:24;5.47;;;3.70;;
3791;SDS011;1911;53.768;11.474;2022-10-16T00:43:54;4.27;;;3.60;;
3791;SDS011;1911;53.768;11.474;2022-10-16T00:46:23;4.47;;;3.40;;
3791;SDS011;1911;53.768;11.474;2022-10-16T00:48:57;4.53;;;3.27;;
3791;SDS011;1911;53.768;11.474;2022-10-16T00:51:55;4.33;;;3.20;;
3791;SDS011;1911;53.768;11.474;2022-10-16T00:54:26;5.07;;;4.00;;
3791;SDS011;1911;53.768;11.474;2022-10-16T00:56:54;6.83;;;4.47;;
3791;SDS011;1911;53.768;11.474;2022-10-16T00:59:29;5.30;;;4.10;;
3791;SDS011;1911;53.768;11.474;2022-10-16T01:12:19;6.53;;;4.70;;
3791;SDS011;1911;53.768;11.474;2022-10-16T01:14:58;10.75;;;6.25;;
3791;SDS011;1911;53.768;11.474;2022-10-16T01:17:41;11.43;;;7.40;;
3791;SDS011;1911;53.768;11.474;2022-10-16T01:20:16;9.10;;;7.30;;
3791;SDS011;1911;53.768;11.474;2022-10-16T01:23:04;9.10;;;6.85;;
3791;SDS011;1911;53.768;11.474;2022-10-16T01:31:09;9.70;;;6.30;;
3791;SDS011;1911;53.768;11.474;2022-10-16T01:33:39;9.30;;;7.27;;
3791;SDS011;1911;53.768;11.474;2022-10-16T01:36:31;9.57;;;6.60;;
3791;SDS011;1911;53.768;11.474;2022-10-16T01:38:59;8.53;;;6.67;;
3791;SDS011;1911;53.768;11.474;2022-10-16T01:41:34;10.20;;;6.50;;
3791;SDS011;1911;53.768;11.474;2022-10-16T01:44:25;9.23;;;5.83;;
3791;SDS011;1911;53.768;11.474;2022-10-16T01:46:57;6.90;;;6.20;;
3791;SDS011;1911;53.768;11.474;2022-10-16T01:49:25;10.00;;;5.80;;
3791;SDS011;1911;53.768;11.474;2022-10-16T01:51:55;9.93;;;6.40;;
3791;SDS011;1911;53.768;11.474;2022-10-16T01:54:23;8.90;;;6.27;;
3791;SDS011;1911;53.768;11.474;2022-10-16T01:56:52;10.20;;;6.20;;
3791;SDS011;1911;53.768;11.474;2022-10-16T01:59:21;8.17;;;6.27;;
3791;SDS011;1911;53.768;11.474;2022-10-16T02:01:50;11.07;;;5.67;;
3791;SDS011;1911;53.768;11.474;2022-10-16T02:07:06;12.60;;;6.27;;
3791;SDS011;1911;53.768;11.474;2022-10-16T02:09:33;11.50;;;6.70;;
3791;SDS011;1911;53.768;11.474;2022-10-16T02:11:59;7.93;;;6.23;;
3791;SDS011;1911;53.768;11.474;2022-10-16T02:14:29;7.13;;;5.63;;
3791;SDS011;1911;53.768;11.474;2022-10-16T02:16:55;7.80;;;6.10;;
3791;SDS011;1911;53.768;11.474;2022-10-16T02:19:21;7.10;;;5.67;;
3791;SDS011;1911;53.768;11.474;2022-10-16T02:21:51;7.67;;;5.53;;
3791;SDS011;1911;53.768;11.474;2022-10-16T02:27:03;6.93;;;5.73;;
3791;SDS011;1911;53.768;11.474;2022-10-16T02:29:34;9.95;;;6.38;;
3791;SDS011;1911;53.768;11.474;2022-10-16T02:32:09;9.93;;;5.80;;
3791;SDS011;1911;53.768;11.474;2022-10-16T02:34:37;10.13;;;6.17;;
3791;SDS011;1911;53.768;11.474;2022-10-16T02:37:05;9.87;;;6.57;;
3791;SDS011;1911;53.768;11.474;2022-10-16T02:39:31;7.53;;;5.65;;
3791;SDS011;1911;53.768;11.474;2022-10-16T02:41:58;9.07;;;6.80;;
3791;SDS011;1911;53.768;11.474;2022-10-16T02:44:24;11.00;;;7.17;;
3791;SDS011;1911;53.768;11.474;2022-10-16T02:46:50;10.20;;;7.00;;
3791;SDS011;1911;53.768;11.474;2022-10-16T02:49:15;6.77;;;5.97;;
3791;SDS011;1911;53.768;11.474;2022-10-16T02:51:42;7.10;;;5.90;;
3791;SDS011;1911;53.768;11.474;2022-10-16T02:54:08;8.00;;;5.60;;
3791;SDS011;1911;53.768;11.474;2022-10-16T02:56:33;7.17;;;6.37;;
3791;SDS011;1911;53.768;11.474;2022-10-16T02:58:59;6.73;;;5.37;;
3791;SDS011;1911;53.768;11.474;2022-10-16T03:01:25;6.47;;;5.00;;
3791;SDS011;1911;53.768;11.474;2022-10-16T03:03:50;8.63;;;6.53;;
3791;SDS011;1911;53.768;11.474;2022-10-16T03:06:16;11.40;;;6.30;;
3791;SDS011;1911;53.768;11.474;2022-10-16T03:08:42;7.10;;;5.50;;
3791;SDS011;1911;53.768;11.474;2022-10-16T03:11:07;6.27;;;4.87;;
3791;SDS011;1911;53.768;11.474;2022-10-16T03:13:33;6.50;;;5.40;;
3791;SDS011;1911;53.768;11.474;2022-10-16T03:15:59;9.30;;;5.30;;
3791;SDS011;1911;53.768;11.474;2022-10-16T03:18:24;8.53;;;5.77;;
3791;SDS011;1911;53.768;11.474;2022-10-16T03:20:50;9.07;;;5.83;;
3791;SDS011;1911;53.768;11.474;2022-10-16T03:23:15;6.47;;;4.73;;
3791;SDS011;1911;53.768;11.474;2022-10-16T03:25:41;8.23;;;4.37;;
3791;SDS011;1911;53.768;11.474;2022-10-16T03:28:07;7.70;;;4.97;;
3791;SDS011;1911;53.768;11.474;2022-10-16T03:30:32;8.73;;;5.00;;
3791;SDS011;1911;53.768;11.474;2022-10-16T03:32:58;6.50;;;5.00;;
3791;SDS011;1911;53.768;11.474;2022-10-16T03:35:24;7.67;;;4.57;;
3791;SDS011;1911;53.768;11.474;2022-10-16T03:37:49;5.23;;;4.30;;
3791;SDS011;1911;53.768;11.474;2022-10-16T03:40:15;7.10;;;4.50;;
3791;SDS011;1911;53.768;11.474;2022-10-16T03:42:42;7.68;;;3.97;;
3791;SDS011;1911;53.768;11.474;2022-10-16T03:45:08;6.03;;;3.80;;
3791;SDS011;1911;53.768;11.474;2022-10-16T03:47:34;4.43;;;3.73;;
3791;SDS011;1911;53.768;11.474;2022-10-16T03:50:00;4.20;;;3.60;;
3791;SDS011;1911;53.768;11.474;2022-10-16T03:52:26;5.10;;;3.90;;
3791;SDS011;1911;53.768;11.474;2022-10-16T03:54:51;5.60;;;2.97;;
3791;SDS011;1911;53.768;11.474;2022-10-16T03:57:17;5.53;;;3.10;;
3791;SDS011;1911;53.768;11.474;2022-10-16T03:59:43;5.83;;;3.27;;
3791;SDS011;1911;53.768;11.474;2022-10-16T04:02:09;4.07;;;3.60;;
3791;SDS011;1911;53.768;11.474;2022-10-16T04:04:34;4.60;;;3.47;;
3791;SDS011;1911;53.768;11.474;2022-10-16T04:07:00;5.70;;;3.10;;
3791;SDS011;1911;53.768;11.474;2022-10-16T04:09:26;5.78;;;3.33;;
3791;SDS011;1911;53.768;11.474;2022-10-16T04:11:52;8.43;;;3.70;;
3791;SDS011;1911;53.768;11.474;2022-10-16T04:14:18;4.77;;;3.70;;
3791;SDS011;1911;53.768;11.474;2022-10-16T04:16:43;3.90;;;3.20;;
3791;SDS011;1911;53.768;11.474;2022-10-16T04:19:09;5.90;;;3.10;;
3791;SDS011;1911;53.768;11.474;2022-10-16T04:21:36;6.30;;;2.78;;
3791;SDS011;1911;53.768;11.474;2022-10-16T04:24:02;3.23;;;2.70;;
3791;SDS011;1911;53.768;11.474;2022-10-16T04:26:27;4.40;;;3.63;;
3791;SDS011;1911;53.768;11.474;2022-10-16T04:28:53;3.70;;;3.20;;
3791;SDS011;1911;53.768;11.474;2022-10-16T04:31:19;7.07;;;3.33;;
3791;SDS011;1911;53.768;11.474;2022-10-16T04:33:45;6.97;;;3.20;;
3791;SDS011;1911;53.768;11.474;2022-10-16T04:36:10;3.73;;;3.00;;
3791;SDS011;1911;53.768;11.474;2022-10-16T04:38:36;7.13;;;4.20;;
3791;SDS011;1911;53.768;11.474;2022-10-16T04:41:02;4.40;;;2.60;;
3791;SDS011;1911;53.768;11.474;2022-10-16T04:43:29;3.37;;;2.80;;
3791;SDS011;1911;53.768;11.474;2022-10-16T04:45:54;5.50;;;2.57;;
3791;SDS011;1911;53.768;11.474;2022-10-16T04:48:21;3.07;;;2.27;;
3791;SDS011;1911;53.768;11.474;2022-10-16T04:50:47;4.83;;;2.57;;
3791;SDS011;1911;53.768;11.474;2022-10-16T04:53:13;3.40;;;2.60;;
3791;SDS011;1911;53.768;11.474;2022-10-16T04:55:38;2.90;;;2.50;;
3791;SDS011;1911;53.768;11.474;2022-10-16T04:58:04;6.00;;;2.77;;
3791;SDS011;1911;53.768;11.474;2022-10-16T05:00:30;7.85;;;2.67;;
3791;SDS011;1911;53.768;11.474;2022-10-16T05:02:56;3.40;;;2.20;;
3791;SDS011;1911;53.768;11.474;2022-10-16T05:05:24;5.93;;;3.08;;
3791;SDS011;1911;53.768;11.474;2022-10-16T05:07:52;3.60;;;2.60;;
3791;SDS011;1911;53.768;11.474;2022-10-16T05:10:18;3.77;;;2.70;;
3791;SDS011;1911;53.768;11.474;2022-10-16T05:12:44;9.63;;;2.70;;
3791;SDS011;1911;53.768;11.474;2022-10-16T05:15:10;3.80;;;2.80;;
3791;SDS011;1911;53.768;11.474;2022-10-16T05:17:36;4.70;;;2.63;;
3791;SDS011;1911;53.768;11.474;2022-10-16T05:20:02;5.20;;;2.20;;
3791;SDS011;1911;53.768;11.474;2022-10-16T05:22:28;9.93;;;2.90;;
3791;SDS011;1911;53.768;11.474;2022-10-16T05:24:54;6.17;;;2.73;;
3791;SDS011;1911;53.768;11.474;2022-10-16T05:27:19;3.73;;;2.70;;
3791;SDS011;1911;53.768;11.474;2022-10-16T05:29:45;3.50;;;2.97;;
3791;SDS011;1911;53.768;11.474;2022-10-16T05:32:12;9.90;;;3.20;;
3791;SDS011;1911;53.768;11.474;2022-10-16T05:34:38;8.60;;;3.00;;
3791;SDS011;1911;53.768;11.474;2022-10-16T05:37:04;5.07;;;2.80;;
3791;SDS011;1911;53.768;11.474;2022-10-16T05:39:29;3.07;;;2.77;;
3791;SDS011;1911;53.768;11.474;2022-10-16T05:41:55;4.50;;;2.73;;
3791;SDS011;1911;53.768;11.474;2022-10-16T05:44:21;4.53;;;2.90;;
3791;SDS011;1911;53.768;11.474;2022-10-16T05:46:46;4.93;;;2.83;;
3791;SDS011;1911;53.768;11.474;2022-10-16T05:49:14;5.63;;;2.73;;
3791;SDS011;1911;53.768;11.474;2022-10-16T05:51:53;5.57;;;2.57;;
3791;SDS011;1911;53.768;11.474;2022-10-16T05:54:19;5.30;;;2.43;;
3791;SDS011;1911;53.768;11.474;2022-10-16T05:56:44;4.73;;;2.80;;
3791;SDS011;1911;53.768;11.474;2022-10-16T05:59:10;6.00;;;2.37;;
3791;SDS011;1911;53.768;11.474;2022-10-16T06:01:36;3.37;;;2.13;;
3791;SDS011;1911;53.768;11.474;2022-10-16T06:04:01;3.57;;;2.57;;
3791;SDS011;1911;53.768;11.474;2022-10-16T06:06:30;4.35;;;2.47;;
3791;SDS011;1911;53.768;11.474;2022-10-16T06:08:56;2.23;;;2.03;;
3791;SDS011;1911;53.768;11.474;2022-10-16T06:11:23;4.63;;;2.33;;
3791;SDS011;1911;53.768;11.474;2022-10-16T06:13:51;3.15;;;2.33;;
3791;SDS011;1911;53.768;11.474;2022-10-16T06:16:18;4.50;;;2.28;;
3791;SDS011;1911;53.768;11.474;2022-10-16T06:18:44;6.40;;;2.40;;
3791;SDS011;1911;53.768;11.474;2022-10-16T07:12:35;3.80;;;2.30;;
3791;SDS011;1911;53.768;11.474;2022-10-16T07:15:01;3.20;;;2.80;;
3791;SDS011;1911;53.768;11.474;2022-10-16T07:17:27;2.80;;;2.17;;
3791;SDS011;1911;53.768;11.474;2022-10-16T07:19:52;5.53;;;2.03;;
3791;SDS011;1911;53.768;11.474;2022-10-16T07:22:20;3.00;;;2.10;;
3791;SDS011;1911;53.768;11.474;2022-10-16T07:24:45;3.47;;;2.10;;
3791;SDS011;1911;53.768;11.474;2022-10-16T07:27:11;2.80;;;2.40;;
3791;SDS011;1911;53.768;11.474;2022-10-16T07:29:36;3.30;;;1.97;;
3791;SDS011;1911;53.768;11.474;2022-10-16T07:32:02;3.10;;;1.80;;
3791;SDS011;1911;53.768;11.474;2022-10-16T07:34:31;5.50;;;2.70;;
3791;SDS011;1911;53.768;11.474;2022-10-16T07:36:56;3.93;;;2.13;;
3791;SDS011;1911;53.768;11.474;2022-10-16T07:39:22;4.83;;;2.50;;
3791;SDS011;1911;53.768;11.474;2022-10-16T07:41:47;6.83;;;1.93;;
3791;SDS011;1911;53.768;11.474;2022-10-16T07:44:13;4.53;;;2.07;;
3791;SDS011;1911;53.768;11.474;2022-10-16T07:46:40;9.23;;;4.05;;
3791;SDS011;1911;53.768;11.474;2022-10-16T07:49:05;4.17;;;3.00;;
3791;SDS011;1911;53.768;11.474;2022-10-16T07:51:31;4.10;;;2.80;;
3791;SDS011;1911;53.768;11.474;2022-10-16T07:53:57;4.07;;;2.43;;
3791;SDS011;1911;53.768;11.474;2022-10-16T07:56:23;3.67;;;2.27;;
3791;SDS011;1911;53.768;11.474;2022-10-16T07:58:49;4.60;;;3.30;;
3791;SDS011;1911;53.768;11.474;2022-10-16T08:01:15;6.10;;;2.80;;
3791;SDS011;1911;53.768;11.474;2022-10-16T08:03:42;4.32;;;2.30;;
3791;SDS011;1911;53.768;11.474;2022-10-16T08:06:08;5.90;;;2.80;;
3791;SDS011;1911;53.768;11.474;2022-10-16T08:08:34;5.37;;;2.80;;
3791;SDS011;1911;53.768;11.474;2022-10-16T08:11:00;2.80;;;2.20;;
3791;SDS011;1911;53.768;11.474;2022-10-16T08:13:28;6.97;;;2.77;;
3791;SDS011;1911;53.768;11.474;2022-10-16T08:15:55;5.70;;;2.57;;
3791;SDS011;1911;53.768;11.474;2022-10-16T08:18:20;8.30;;;2.83;;
3791;SDS011;1911;53.768;11.474;2022-10-16T08:20:46;4.63;;;2.42;;
3791;SDS011;1911;53.768;11.474;2022-10-16T08:23:12;6.13;;;2.90;;
3791;SDS011;1911;53.768;11.474;2022-10-16T08:25:38;5.90;;;3.38;;
3791;SDS011;1911;53.768;11.474;2022-10-16T08:28:05;4.77;;;2.70;;
3791;SDS011;1911;53.768;11.474;2022-10-16T08:30:32;7.00;;;2.57;;
3791;SDS011;1911;53.768;11.474;2022-10-16T08:32:58;3.70;;;2.57;;
3791;SDS011;1911;53.768;11.474;2022-10-16T08:35:24;6.50;;;2.67;;
3791;SDS011;1911;53.768;11.474;2022-10-16T08:37:50;7.63;;;2.47;;
3791;SDS011;1911;53.768;11.474;2022-10-16T08:40:19;3.20;;;2.13;;
3791;SDS011;1911;53.768;11.474;2022-10-16T08:48:52;3.70;;;1.93;;
3791;SDS011;1911;53.768;11.474;2022-10-16T08:51:24;2.47;;;1.97;;
3791;SDS011;1911;53.768;11.474;2022-10-16T08:54:04;3.03;;;1.80;;
3791;SDS011;1911;53.768;11.474;2022-10-16T08:56:50;4.60;;;1.50;;
3791;SDS011;1911;53.768;11.474;2022-10-16T08:59:15;1.97;;;1.30;;
3791;SDS011;1911;53.768;11.474;2022-10-16T09:01:44;4.83;;;2.00;;
3791;SDS011;1911;53.768;11.474;2022-10-16T09:10:00;5.03;;;1.93;;
3791;SDS011;1911;53.768;11.474;2022-10-16T09:12:48;5.20;;;1.73;;
3791;SDS011;1911;53.768;11.474;2022-10-16T09:15:53;5.40;;;1.90;;
3791;SDS011;1911;53.768;11.474;2022-10-16T09:18:54;2.00;;;1.30;;
3791;SDS011;1911;53.768;11.474;2022-10-16T09:21:31;3.40;;;1.60;;
3791;SDS011;1911;53.768;11.474;2022-10-16T09:24:34;2.30;;;1.50;;
3791;SDS011;1911;53.768;11.474;2022-10-16T09:26:52;2.97;;;1.70;;
3791;SDS011;1911;53.768;11.474;2022-10-16T09:29:19;2.60;;;1.53;;
3791;SDS011;1911;53.768;11.474;2022-10-16T09:31:45;3.10;;;1.80;;
3791;SDS011;1911;53.768;11.474;2022-10-16T09:34:21;3.60;;;1.50;;
3791;SDS011;1911;53.768;11.474;2022-10-16T09:36:54;1.47;;;1.30;;
3791;SDS011;1911;53.768;11.474;2022-10-16T09:39:22;3.77;;;1.60;;
3791;SDS011;1911;53.768;11.474;2022-10-16T09:41:47;3.93;;;1.53;;
3791;SDS011;1911;53.768;11.474;2022-10-16T09:44:27;2.67;;;1.40;;
3791;SDS011;1911;53.768;11.474;2022-10-16T09:47:14;5.73;;;1.50;;
3791;SDS011;1911;53.768;11.474;2022-10-16T09:49:58;2.13;;;1.50;;
3791;SDS011;1911;53.768;11.474;2022-10-16T09:52:36;2.77;;;1.23;;
3791;SDS011;1911;53.768;11.474;2022-10-16T09:55:13;3.53;;;1.80;;
3791;SDS011;1911;53.768;11.474;2022-10-16T09:57:52;2.30;;;1.57;;
3791;SDS011;1911;53.768;11.474;2022-10-16T10:00:19;4.43;;;1.60;;
3791;SDS011;1911;53.768;11.474;2022-10-16T10:02:45;2.50;;;1.30;;
3791;SDS011;1911;53.768;11.474;2022-10-16T10:05:22;4.27;;;2.00;;
3791;SDS011;1911;53.768;11.474;2022-10-16T10:07:59;2.53;;;1.40;;
3791;SDS011;1911;53.768;11.474;2022-10-16T10:10:31;3.97;;;1.20;;
3791;SDS011;1911;53.768;11.474;2022-10-16T10:12:59;4.63;;;1.42;;
3791;SDS011;1911;53.768;11.474;2022-10-16T10:15:32;3.97;;;1.70;;
3791;SDS011;1911;53.768;11.474;2022-10-16T10:18:01;2.70;;;1.27;;
3791;SDS011;1911;53.768;11.474;2022-10-16T10:22:56;2.43;;;1.23;;
3791;SDS011;1911;53.768;11.474;2022-10-16T10:33:43;4.23;;;1.40;;
3791;SDS011;1911;53.768;11.474;2022-10-16T10:36:29;1.27;;;1.13;;
3791;SDS011;1911;53.768;11.474;2022-10-16T10:39:08;1.80;;;1.00;;
3791;SDS011;1911;53.768;11.474;2022-10-16T10:50:11;2.73;;;1.00;;
3791;SDS011;1911;53.768;11.474;2022-10-16T10:57:51;3.93;;;1.20;;
3791;SDS011;1911;53.768;11.474;2022-10-16T11:06:18;2.40;;;0.83;;
3791;SDS011;1911;53.768;11.474;2022-10-16T11:08:57;2.13;;;0.97;;
3791;SDS011;1911;53.768;11.474;2022-10-16T11:11:43;2.33;;;0.90;;
3791;SDS011;1911;53.768;11.474;2022-10-16T11:14:16;2.03;;;1.03;;
3791;SDS011;1911;53.768;11.474;2022-10-16T11:16:56;1.77;;;0.90;;
3791;SDS011;1911;53.768;11.474;2022-10-16T11:22:19;2.73;;;1.00;;
3791;SDS011;1911;53.768;11.474;2022-10-16T11:25:43;2.10;;;0.80;;
3791;SDS011;1911;53.768;11.474;2022-10-16T11:28:09;2.40;;;0.90;;
3791;SDS011;1911;53.768;11.474;2022-10-16T11:36:25;1.50;;;0.83;;
3791;SDS011;1911;53.768;11.474;2022-10-16T11:41:42;1.30;;;0.70;;
3791;SDS011;1911;53.768;11.474;2022-10-16T11:47:08;1.33;;;0.70;;
3791;SDS011;1911;53.768;11.474;2022-10-16T11:49:39;2.33;;;0.80;;
3791;SDS011;1911;53.768;11.474;2022-10-16T11:54:54;5.10;;;0.77;;
3791;SDS011;1911;53.768;11.474;2022-10-16T11:57:26;1.40;;;0.80;;
3791;SDS011;1911;53.768;11.474;2022-10-16T12:05:09;1.10;;;0.60;;
3791;SDS011;1911;53.768;11.474;2022-10-16T12:07:38;4.73;;;1.00;;
3791;SDS011;1911;53.768;11.474;2022-10-16T12:10:20;3.00;;;1.00;;
3791;SDS011;1911;53.768;11.474;2022-10-16T12:12:49;2.30;;;0.93;;
3791;SDS011;1911;53.768;11.474;2022-10-16T12:17:51;1.20;;;0.57;;
3791;SDS011;1911;53.768;11.474;2022-10-16T12:22:49;1.60;;;0.70;;
3791;SDS011;1911;53.768;11.474;2022-10-16T12:25:35;2.60;;;1.13;;
3791;SDS011;1911;53.768;11.474;2022-10-16T12:28:05;2.47;;;0.80;;
3791;SDS011;1911;53.768;11.474;2022-10-16T12:30:32;1.90;;;0.77;;
3791;SDS011;1911;53.768;11.474;2022-10-16T12:33:03;2.13;;;1.00;;
3791;SDS011;1911;53.768;11.474;2022-10-16T12:35:45;1.35;;;0.70;;
3791;SDS011;1911;53.768;11.474;2022-10-16T12:38:15;1.70;;;0.73;;
3791;SDS011;1911;53.768;11.474;2022-10-16T12:48:35;1.53;;;0.70;;
3791;SDS011;1911;53.768;11.474;2022-10-16T12:54:15;1.40;;;0.60;;
3791;SDS011;1911;53.768;11.474;2022-10-16T13:25:27;1.27;;;0.60;;
3791;SDS011;1911;53.768;11.474;2022-10-16T13:28:02;2.67;;;1.00;;
3791;SDS011;1911;53.768;11.474;2022-10-16T13:30:42;6.20;;;1.13;;
3791;SDS011;1911;53.768;11.474;2022-10-16T13:35:55;1.80;;;0.70;;
3791;SDS011;1911;53.768;11.474;2022-10-16T13:38:30;3.50;;;0.70;;
3791;SDS011;1911;53.768;11.474;2022-10-16T13:40:59;3.80;;;0.87;;
3791;SDS011;1911;53.768;11.474;2022-10-16T13:43:36;3.33;;;0.97;;
3791;SDS011;1911;53.768;11.474;2022-10-16T13:46:05;1.40;;;0.80;;
3791;SDS011;1911;53.768;11.474;2022-10-16T13:48:32;5.63;;;1.07;;
3791;SDS011;1911;53.768;11.474;2022-10-16T13:51:03;2.77;;;0.80;;
3791;SDS011;1911;53.768;11.474;2022-10-16T13:53:33;3.67;;;0.67;;
3791;SDS011;1911;53.768;11.474;2022-10-16T13:56:01;3.07;;;0.80;;
3791;SDS011;1911;53.768;11.474;2022-10-16T13:58:29;3.00;;;1.00;;
3791;SDS011;1911;53.768;11.474;2022-10-16T14:00:56;1.80;;;0.80;;
3791;SDS011;1911;53.768;11.474;2022-10-16T14:03:23;2.00;;;0.70;;
3791;SDS011;1911;53.768;11.474;2022-10-16T14:05:54;3.65;;;0.80;;
3791;SDS011;1911;53.768;11.474;2022-10-16T14:08:22;1.93;;;0.90;;
3791;SDS011;1911;53.768;11.474;2022-10-16T14:10:50;3.47;;;1.00;;
3791;SDS011;1911;53.768;11.474;2022-10-16T14:13:42;2.75;;;0.98;;
3791;SDS011;1911;53.768;11.474;2022-10-16T14:16:06;3.55;;;0.80;;
3791;SDS011;1911;53.768;11.474;2022-10-16T14:18:35;2.10;;;0.80;;
3791;SDS011;1911;53.768;11.474;2022-10-16T14:21:04;3.00;;;0.80;;
3791;SDS011;1911;53.768;11.474;2022-10-16T14:23:32;7.03;;;1.67;;
3791;SDS011;1911;53.768;11.474;2022-10-16T14:28:33;3.70;;;0.90;;
3791;SDS011;1911;53.768;11.474;2022-10-16T14:31:00;2.67;;;1.05;;
3791;SDS011;1911;53.768;11.474;2022-10-16T14:33:40;2.00;;;0.80;;
3791;SDS011;1911;53.768;11.474;2022-10-16T14:36:10;2.30;;;1.00;;
3791;SDS011;1911;53.768;11.474;2022-10-16T14:38:39;3.00;;;1.00;;
3791;SDS011;1911;53.768;11.474;2022-10-16T14:41:07;4.30;;;0.90;;
3791;SDS011;1911;53.768;11.474;2022-10-16T14:43:34;3.85;;;0.90;;
3791;SDS011;1911;53.768;11.474;2022-10-16T14:46:21;1.60;;;0.90;;
3791;SDS011;1911;53.768;11.474;2022-10-16T14:48:54;1.37;;;0.90;;
3791;SDS011;1911;53.768;11.474;2022-10-16T14:51:40;1.70;;;0.90;;
3791;SDS011;1911;53.768;11.474;2022-10-16T14:54:11;5.73;;;1.30;;
3791;SDS011;1911;53.768;11.474;2022-10-16T14:56:56;4.23;;;1.00;;
3791;SDS011;1911;53.768;11.474;2022-10-16T14:59:39;2.87;;;0.90;;
3791;SDS011;1911;53.768;11.474;2022-10-16T15:04:55;10.60;;;1.00;;
3791;SDS011;1911;53.768;11.474;2022-10-16T15:07:21;1.87;;;0.87;;
3791;SDS011;1911;53.768;11.474;2022-10-16T15:09:47;2.70;;;0.93;;
3791;SDS011;1911;53.768;11.474;2022-10-16T15:12:12;1.80;;;0.90;;
3791;SDS011;1911;53.768;11.474;2022-10-16T15:14:38;1.20;;;0.70;;
3791;SDS011;1911;53.768;11.474;2022-10-16T15:17:04;1.83;;;0.70;;
3791;SDS011;1911;53.768;11.474;2022-10-16T15:19:30;3.07;;;1.10;;
3791;SDS011;1911;53.768;11.474;2022-10-16T15:21:56;4.05;;;1.23;;
3791;SDS011;1911;53.768;11.474;2022-10-16T15:24:21;3.87;;;1.10;;
3791;SDS011;1911;53.768;11.474;2022-10-16T15:26:47;2.70;;;1.47;;
3791;SDS011;1911;53.768;11.474;2022-10-16T15:29:13;1.87;;;1.10;;
3791;SDS011;1911;53.768;11.474;2022-10-16T15:31:39;1.33;;;1.00;;
3791;SDS011;1911;53.768;11.474;2022-10-16T15:34:08;3.60;;;1.20;;
3791;SDS011;1911;53.768;11.474;2022-10-16T15:36:35;3.43;;;1.30;;
3791;SDS011;1911;53.768;11.474;2022-10-16T15:39:11;3.50;;;1.50;;
3791;SDS011;1911;53.768;11.474;2022-10-16T15:41:42;4.17;;;1.57;;
3791;SDS011;1911;53.768;11.474;2022-10-16T15:44:09;3.40;;;1.57;;
3791;SDS011;1911;53.768;11.474;2022-10-16T15:46:35;3.97;;;2.27;;
3791;SDS011;1911;53.768;11.474;2022-10-16T15:49:02;2.53;;;1.10;;
3791;SDS011;1911;53.768;11.474;2022-10-16T15:51:27;2.37;;;1.00;;
3791;SDS011;1911;53.768;11.474;2022-10-16T15:57:29;2.10;;;1.10;;
3791;SDS011;1911;53.768;11.474;2022-10-16T15:59:58;3.30;;;1.13;;
3791;SDS011;1911;53.768;11.474;2022-10-16T16:02:26;3.47;;;1.60;;
3791;SDS011;1911;53.768;11.474;2022-10-16T16:04:54;2.57;;;1.20;;
3791;SDS011;1911;53.768;11.474;2022-10-16T16:07:35;8.52;;;1.77;;
3791;SDS011;1911;53.768;11.474;2022-10-16T16:10:01;2.37;;;1.10;;
3791;SDS011;1911;53.768;11.474;2022-10-16T16:12:28;2.60;;;1.00;;
3791;SDS011;1911;53.768;11.474;2022-10-16T16:14:53;2.53;;;1.20;;
3791;SDS011;1911;53.768;11.474;2022-10-16T16:17:19;4.03;;;1.23;;
3791;SDS011;1911;53.768;11.474;2022-10-16T16:19:45;4.10;;;1.10;;
3791;SDS011;1911;53.768;11.474;2022-10-16T16:22:11;5.37;;;1.10;;
3791;SDS011;1911;53.768;11.474;2022-10-16T16:24:36;4.20;;;0.93;;
3791;SDS011;1911;53.768;11.474;2022-10-16T16:27:02;4.27;;;1.23;;
3791;SDS011;1911;53.768;11.474;2022-10-16T16:29:43;3.90;;;1.33;;
3791;SDS011;1911;53.768;11.474;2022-10-16T16:32:16;2.75;;;1.45;;
3791;SDS011;1911;53.768;11.474;2022-10-16T16:34:42;3.83;;;1.40;;
3791;SDS011;1911;53.768;11.474;2022-10-16T17:29:38;3.60;;;1.83;;
3791;SDS011;1911;53.768;11.474;2022-10-16T17:32:04;6.77;;;1.40;;
3791;SDS011;1911;53.768;11.474;2022-10-16T17:34:29;5.20;;;2.00;;
3791;SDS011;1911;53.768;11.474;2022-10-16T17:36:55;4.00;;;1.90;;
3791;SDS011;1911;53.768;11.474;2022-10-16T17:39:21;3.27;;;2.20;;
3791;SDS011;1911;53.768;11.474;2022-10-16T17:41:47;3.30;;;2.00;;
3791;SDS011;1911;53.768;11.474;2022-10-16T17:44:13;4.47;;;1.67;;
3791;SDS011;1911;53.768;11.474;2022-10-16T17:46:44;6.33;;;3.63;;
3791;SDS011;1911;53.768;11.474;2022-10-16T17:49:11;3.87;;;1.70;;
3791;SDS011;1911;53.768;11.474;2022-10-16T17:51:38;3.30;;;2.70;;
3791;SDS011;1911;53.768;11.474;2022-10-16T17:54:05;5.77;;;2.20;;
3791;SDS011;1911;53.768;11.474;2022-10-16T17:56:31;1.80;;;1.60;;
3791;SDS011;1911;53.768;11.474;2022-10-16T17:58:57;5.10;;;1.90;;
3791;SDS011;1911;53.768;11.474;2022-10-16T18:01:25;4.23;;;2.10;;
3791;SDS011;1911;53.768;11.474;2022-10-16T18:03:57;6.20;;;2.80;;
3791;SDS011;1911;53.768;11.474;2022-10-16T18:06:25;7.83;;;2.63;;
3791;SDS011;1911;53.768;11.474;2022-10-16T18:08:52;5.93;;;2.73;;
3791;SDS011;1911;53.768;11.474;2022-10-16T18:11:19;4.70;;;2.53;;
3791;SDS011;1911;53.768;11.474;2022-10-16T18:13:46;6.97;;;2.55;;
3791;SDS011;1911;53.768;11.474;2022-10-16T18:16:12;6.00;;;2.50;;
3791;SDS011;1911;53.768;11.474;2022-10-16T18:18:39;4.90;;;2.37;;
3791;SDS011;1911;53.768;11.474;2022-10-16T18:21:09;2.40;;;1.60;;
3791;SDS011;1911;53.768;11.474;2022-10-16T18:23:36;3.80;;;1.80;;
3791;SDS011;1911;53.768;11.474;2022-10-16T18:26:05;3.47;;;1.97;;
3791;SDS011;1911;53.768;11.474;2022-10-16T18:28:43;8.97;;;2.37;;
3791;SDS011;1911;53.768;11.474;2022-10-16T20:15:04;3.70;;;2.07;;
3791;SDS011;1911;53.768;11.474;2022-10-16T20:28:17;4.60;;;2.60;;
3791;SDS011;1911;53.768;11.474;2022-10-16T20:30:46;6.70;;;2.60;;
3791;SDS011;1911;53.768;11.474;2022-10-16T20:33:14;3.93;;;2.80;;
3791;SDS011;1911;53.768;11.474;2022-10-16T20:35:44;5.22;;;2.38;;
3791;SDS011;1911;53.768;11.474;2022-10-16T20:38:14;5.40;;;3.17;;
3791;SDS011;1911;53.768;11.474;2022-10-16T20:40:42;3.50;;;2.40;;
3791;SDS011;1911;53.768;11.474;2022-10-16T20:43:13;4.00;;;2.00;;
3791;SDS011;1911;53.768;11.474;2022-10-16T20:45:41;2.70;;;2.33;;
3791;SDS011;1911;53.768;11.474;2022-10-16T20:48:08;3.83;;;2.63;;
3791;SDS011;1911;53.768;11.474;2022-10-16T20:50:35;5.07;;;3.00;;
3791;SDS011;1911;53.768;11.474;2022-10-16T20:53:01;6.33;;;2.90;;
3791;SDS011;1911;53.768;11.474;2022-10-16T20:55:27;4.68;;;2.70;;
3791;SDS011;1911;53.768;11.474;2022-10-16T20:57:53;3.70;;;2.65;;
3791;SDS011;1911;53.768;11.474;2022-10-16T21:00:20;6.10;;;3.00;;
3791;SDS011;1911;53.768;11.474;2022-10-16T21:02:49;4.97;;;2.23;;
3791;SDS011;1911;53.768;11.474;2022-10-16T21:05:15;4.80;;;2.67;;
3791;SDS011;1911;53.768;11.474;2022-10-16T21:07:41;4.90;;;2.50;;
3791;SDS011;1911;53.768;11.474;2022-10-16T21:10:07;4.00;;;2.40;;
3791;SDS011;1911;53.768;11.474;2022-10-16T21:12:33;7.23;;;2.70;;